Архив погоды в Архаре

Метеограмма Архара
Пятница, 21 Сентября
Время местн. Темп Ветер Видим Явления Облачность нижн/средн/верх Атм. давл. Влжн Точка росы ВНГО R Сост. почвы Tg s
Напр Скр Прв ур.ст ур.м изм
06:00 +12.3° В,Ю-В 1 - более 50 км - переменная облачность 748 760 +0.1 67% +6.3° более 2.5 км - - - -
03:00 +12.6° В,Ю-В 1 - 50 км - ясно 748 760 -0.1 66% +6.5° более 2.5 км - - - -
00:00 +14.5° В,Ю-В 1 - 50 км - ясно 748 760 +0.1 58% +6.4° более 2.5 км - - - -
Четверг, 20 Сентября
Время местн. Темп Ветер Видим Явления Облачность нижн/средн/верх Атм. давл. Влжн Точка росы ВНГО R Сост. почвы Tg s
Напр Скр Прв ур.ст ур.м изм
21:00 +15.2° В 1 - 50 км - ясно 748 760 +0.5 56% +6.6° более 2.5 км 0 - - -
18:00 +19.2° В,Ю-В 1 - 50 км - ясно 748 760 -0.3 48% +8° более 2.5 км - - - -
15:00 +23.1° Ю 1 - 50 км - ясно 748 760 -1.4 30% +4.8° более 2.5 км - - - -
12:00 +19.7° Ю,Ю-В 1 - 50 км - ясно 749 761 -1 43% +6.7° более 2.5 км - - - -
09:00 +10.1° Ю-В 1 - 50 км - облачно с прояснениями 750 763 +0.3 72% +5.3° 1.5 км 0 Влажная (без луж) - -
06:00 +2.5° Ю-В 1 - 50 км - переменная облачность 750 763 +0.4 89% +0.9° - - - - -
03:00 +0.9° С 1 - 50 км - ясно 750 762 +0.5 92% -0.2° более 2.5 км - - - -
00:00 +2.7° С-В 1 - 50 км - переменная облачность 749 762 +0.5 91% +1.4° - - - - -
Среда, 19 Сентября
Время местн. Темп Ветер Видим Явления Облачность нижн/средн/верх Атм. давл. Влжн Точка росы ВНГО R Сост. почвы Tg s
Напр Скр Прв ур.ст ур.м изм
21:00 +4.5° С,С-В 1 - 50 км - переменная облачность 749 761 +0.8 89% +2.8° более 2.5 км 0 - - -
18:00 +15° З,С-З 1 - 50 км - переменная облачность 748 760 -0.4 50% +4.8° более 2.5 км - - - -
15:00 +19.7° С-З 3 - 50 км - переменная облачность 748 760 -1 28% +0.8° более 2.5 км - - - -
12:00 +17.7° З,С-З 3 - 50 км - переменная облачность 749 761 -0.3 40% +4° 1.5 км - - - -
09:00 +8.9° З 1 - 50 км - ясно 750 762 +0.5 80% +5.7° более 2.5 км 0 Влажная (без луж) - -
06:00 +0.1° С,С-В 1 - 50 км - ясно 749 762 +0.4 92% -1.1° более 2.5 км - - - -
03:00 +1.4° С,С-В 2 - 50 км - ясно 749 762 +0.5 92% +0.2° более 2.5 км - - - -
00:00 +1.9° С 1 - более 50 км - ясно 748 761 +0.5 92% +0.7° более 2.5 км - - - -
Вторник, 18 Сентября
Время местн. Темп Ветер Видим Явления Облачность нижн/средн/верх Атм. давл. Влжн Точка росы ВНГО R Сост. почвы Tg s
Напр Скр Прв ур.ст ур.м изм
21:00 +5.1° штиль 0 - 50 км - ясно 748 760 +0.6 90% +3.6° более 2.5 км 0 - - -
18:00 +15.4° С-З 1 11 более 50 км - ясно 747 759 +0.2 47% +4.1° более 2.5 км - - - -
15:00 +18.7° З,С-З 5 - 50 км - переменная облачность 747 759 -0.6 33% +2° 1.5 км - - - -
12:00 +17.2° С-З 4 - 50 км - переменная облачность 748 760 -0.6 44% +5° 1.5 км - - - -
09:00 +10.6° З,С-З 2 - 50 км - ясно 748 761 +0.5 73% +6° более 2.5 км 0 Влажная (без луж) - -
06:00 +3.9° С 1 - 50 км - переменная облачность 748 760 +0.2 91% +2.6° - - - - -
03:00 +5.4° С 1 - 50 км - ясно 748 760 +0.4 91% +4.1° более 2.5 км - - - -